createdAt,value
2024-05-09T00:03:55.711Z,2.08
2024-05-09T00:06:25.552Z,2.08
2024-05-09T00:11:24.985Z,2.15
2024-05-09T00:13:54.837Z,2.00
2024-05-09T00:18:56.970Z,2.35
2024-05-09T00:21:26.782Z,2.63
2024-05-09T00:23:56.535Z,2.95
2024-05-09T00:26:27.211Z,2.13
2024-05-09T00:28:57.122Z,2.40
2024-05-09T00:33:59.767Z,3.30
2024-05-09T00:36:29.582Z,1.88
2024-05-09T00:38:59.369Z,2.17
2024-05-09T00:43:58.895Z,2.83
2024-05-09T00:49:01.239Z,2.10
2024-05-09T00:51:31.168Z,2.15
2024-05-09T00:56:31.931Z,2.35
2024-05-09T00:59:01.863Z,2.13
2024-05-09T01:04:05.245Z,1.95
2024-05-09T01:06:35.141Z,2.47
2024-05-09T01:09:04.943Z,1.95
2024-05-09T01:14:09.211Z,2.38
2024-05-09T01:19:17.464Z,2.50
2024-05-09T01:21:47.653Z,2.13
2024-05-09T01:24:20.115Z,1.95
2024-05-09T01:26:49.897Z,2.53
2024-05-09T01:29:20.210Z,2.42
2024-05-09T01:31:52.212Z,2.13
2024-05-09T01:34:22.330Z,3.03
2024-05-09T01:36:52.200Z,2.15
2024-05-09T01:41:54.489Z,1.98
2024-05-09T01:44:24.358Z,2.88
2024-05-09T01:49:24.032Z,2.67
2024-05-09T01:51:53.956Z,1.83
2024-05-09T01:54:26.350Z,1.83
2024-05-09T01:56:56.151Z,2.90
2024-05-09T01:59:26.041Z,1.60
2024-05-09T02:01:57.707Z,3.72
2024-05-09T02:04:27.990Z,2.50
2024-05-09T02:06:57.880Z,2.50
2024-05-09T02:09:30.345Z,2.03
2024-05-09T02:12:00.409Z,1.88
2024-05-09T02:14:30.334Z,2.72
2024-05-09T02:19:29.970Z,2.10
2024-05-09T02:21:59.795Z,2.05
2024-05-09T02:24:32.184Z,2.00
2024-05-09T02:27:01.951Z,2.25
2024-05-09T02:29:31.790Z,2.05
2024-05-09T02:34:28.755Z,1.75
2024-05-09T02:39:28.165Z,2.75
2024-05-09T02:44:25.047Z,1.85
2024-05-09T02:46:54.985Z,2.53
2024-05-09T02:51:51.919Z,1.83
2024-05-09T02:54:19.080Z,2.55
2024-05-09T02:56:51.479Z,2.55
2024-05-09T02:59:18.777Z,1.83
2024-05-09T03:01:48.780Z,3.28
2024-05-09T03:04:16.185Z,1.83
2024-05-09T03:06:46.056Z,1.80
2024-05-09T03:09:13.262Z,2.63
2024-05-09T03:11:43.097Z,2.53
2024-05-09T03:16:45.571Z,1.70
2024-05-09T03:21:42.698Z,2.78
2024-05-09T03:24:11.485Z,2.10
2024-05-09T03:26:41.317Z,2.67
2024-05-09T03:31:41.883Z,2.50
2024-05-09T03:34:11.188Z,2.03
2024-05-09T03:36:44.626Z,2.15
2024-05-09T03:39:14.586Z,2.60
2024-05-09T03:44:11.486Z,2.25
2024-05-09T03:49:11.419Z,1.92
2024-05-09T03:51:38.638Z,2.78
2024-05-09T03:54:08.539Z,2.33
2024-05-09T03:59:05.737Z,2.42
2024-05-09T04:04:05.311Z,2.33
2024-05-09T04:06:32.479Z,2.35
2024-05-09T04:09:02.231Z,1.80
2024-05-09T04:11:32.135Z,3.05
2024-05-09T04:13:59.405Z,1.73
2024-05-09T04:16:29.169Z,2.92
2024-05-09T04:18:56.390Z,2.95
2024-05-09T04:21:28.894Z,2.67
2024-05-09T04:23:56.062Z,2.75
2024-05-09T04:26:25.910Z,2.20
2024-05-09T04:31:22.676Z,2.92
2024-05-09T04:33:50.002Z,1.98
2024-05-09T04:36:19.907Z,4.53
2024-05-09T04:38:49.673Z,2.83
2024-05-09T04:41:19.523Z,1.90
2024-05-09T04:46:17.757Z,1.70
2024-05-09T04:48:45.142Z,2.28
2024-05-09T04:51:15.105Z,1.50
2024-05-09T04:56:14.670Z,1.70
2024-05-09T04:58:41.883Z,2.47
2024-05-09T05:01:11.719Z,1.90
2024-05-09T05:03:39.268Z,1.73
2024-05-09T05:06:09.364Z,1.63
2024-05-09T05:08:36.692Z,1.48
2024-05-09T05:11:06.874Z,1.45
2024-05-09T05:13:38.570Z,1.80
2024-05-09T05:16:10.198Z,2.38
2024-05-09T05:18:37.493Z,2.33
2024-05-09T05:21:07.985Z,1.80
2024-05-09T05:23:35.158Z,1.85
2024-05-09T05:26:05.031Z,1.75
2024-05-09T05:31:04.477Z,2.50
2024-05-09T05:33:31.883Z,2.17
2024-05-09T05:36:01.761Z,1.95
2024-05-09T05:38:29.079Z,2.10
2024-05-09T05:40:58.955Z,3.10
2024-05-09T05:45:55.782Z,3.90
2024-05-09T05:48:25.689Z,3.80
2024-05-09T05:50:55.686Z,3.95
2024-05-09T05:55:52.645Z,2.88
2024-05-09T06:00:50.731Z,4.38
2024-05-09T06:03:18.041Z,3.65
2024-05-09T06:05:50.623Z,2.33
2024-05-09T06:08:17.856Z,1.88
2024-05-09T06:10:47.956Z,4.03
2024-05-09T06:13:15.759Z,6.68
2024-05-09T06:15:45.691Z,3.67
2024-05-09T06:18:14.585Z,3.53
2024-05-09T06:20:45.046Z,4.85
2024-05-09T06:23:15.063Z,3.10
2024-05-09T06:25:45.051Z,9.57
2024-05-09T06:28:12.269Z,8.00
2024-05-09T06:30:43.195Z,5.40
2024-05-09T06:33:13.464Z,4.05
2024-05-09T06:35:45.802Z,4.80
2024-05-09T06:38:15.720Z,4.85
2024-05-09T06:43:13.299Z,4.43
2024-05-09T06:45:43.228Z,4.22
2024-05-09T06:48:10.714Z,4.00
2024-05-09T06:50:40.777Z,4.28
2024-05-09T06:53:08.937Z,4.95
2024-05-09T06:55:41.461Z,8.75
2024-05-09T06:58:09.238Z,10.23
2024-05-09T07:00:41.332Z,9.60
2024-05-09T07:03:11.118Z,10.05
2024-05-09T07:05:42.068Z,9.80
2024-05-09T07:08:09.463Z,10.20
2024-05-09T07:10:42.136Z,10.32
2024-05-09T07:13:09.882Z,10.60
2024-05-09T07:15:39.855Z,10.38
2024-05-09T07:18:11.486Z,10.63
2024-05-09T07:20:42.035Z,10.82
2024-05-09T07:23:09.890Z,10.73
2024-05-09T07:25:43.120Z,10.43
2024-05-09T07:28:14.898Z,11.57
2024-05-09T07:30:45.101Z,10.65
2024-05-09T07:33:16.327Z,8.40
2024-05-09T07:35:46.265Z,9.60
2024-05-09T07:38:13.766Z,11.63
2024-05-09T07:40:46.460Z,10.32
2024-05-09T07:43:14.441Z,10.57
2024-05-09T07:45:51.806Z,10.48
2024-05-09T07:52:38.380Z,10.45
2024-05-09T07:53:46.212Z,10.45
2024-05-09T07:56:23.494Z,10.40
2024-05-09T07:58:53.061Z,9.73
2024-05-09T08:01:27.326Z,10.40
2024-05-09T08:03:56.357Z,10.82
2024-05-09T08:06:26.843Z,11.90
2024-05-09T08:08:54.716Z,8.95
2024-05-09T08:11:27.114Z,9.98
2024-05-09T08:13:54.245Z,10.13
2024-05-09T08:16:24.313Z,8.90
2024-05-09T08:18:54.510Z,8.98
2024-05-09T08:21:26.094Z,9.52
2024-05-09T08:23:55.121Z,9.82
2024-05-09T08:26:27.763Z,8.73
2024-05-09T08:28:55.515Z,8.40
2024-05-09T08:31:25.625Z,9.18
2024-05-09T08:33:54.536Z,8.05
2024-05-09T08:36:24.653Z,6.82
2024-05-09T08:38:51.944Z,7.72
2024-05-09T08:41:22.150Z,8.13
2024-05-09T08:43:52.233Z,8.00
2024-05-09T08:46:23.083Z,7.63
2024-05-09T08:48:52.212Z,8.35
2024-05-09T08:51:22.974Z,8.07
2024-05-09T08:53:50.151Z,8.02
2024-05-09T08:56:21.755Z,6.50
2024-05-09T08:58:56.568Z,8.02
2024-05-09T09:01:27.895Z,8.43
2024-05-09T09:03:56.107Z,5.60
2024-05-09T09:06:27.553Z,9.80
2024-05-09T09:08:55.585Z,7.93
2024-05-09T09:11:26.159Z,9.20
2024-05-09T09:13:55.929Z,7.85
2024-05-09T09:16:35.474Z,9.27
2024-05-09T09:21:33.660Z,9.52
2024-05-09T09:24:00.899Z,9.48
2024-05-09T09:26:33.667Z,11.82
2024-05-09T09:29:04.126Z,11.43
2024-05-09T09:31:34.442Z,10.98
2024-05-09T09:36:56.113Z,10.00
2024-05-09T09:39:30.960Z,9.60
2024-05-09T09:42:10.906Z,9.32
2024-05-09T09:47:41.506Z,9.03
2024-05-09T09:50:12.130Z,8.57
2024-05-09T09:53:07.623Z,9.32
2024-05-09T09:55:40.249Z,9.25
2024-05-09T09:58:13.123Z,8.27
2024-05-09T10:00:49.596Z,8.20
2024-05-09T10:03:19.142Z,8.85
2024-05-09T10:05:49.678Z,9.98
2024-05-09T10:08:18.509Z,7.05
2024-05-09T10:10:50.111Z,7.77
2024-05-09T10:16:11.584Z,7.32
2024-05-09T10:18:40.573Z,7.85
2024-05-09T10:21:20.556Z,8.85
2024-05-09T10:23:57.924Z,8.18
2024-05-09T10:26:34.700Z,10.05
2024-05-09T10:29:12.185Z,7.97
2024-05-09T10:31:48.280Z,6.25
2024-05-09T10:34:20.181Z,6.40
2024-05-09T10:36:55.820Z,5.53
2024-05-09T10:39:25.210Z,7.60
2024-05-09T10:41:55.391Z,7.03
2024-05-09T10:44:22.639Z,5.13
2024-05-09T10:46:55.720Z,6.72
2024-05-09T10:49:23.195Z,5.63
2024-05-09T10:51:56.673Z,9.00
2024-05-09T10:59:57.928Z,5.88
2024-05-09T11:02:32.276Z,7.82
2024-05-09T11:04:59.904Z,6.80
2024-05-09T11:07:30.791Z,6.65
2024-05-09T11:09:58.399Z,4.63
2024-05-09T11:15:09.275Z,4.63
2024-05-09T11:17:43.547Z,4.88
2024-05-09T11:20:26.451Z,6.15
2024-05-09T11:23:23.165Z,6.07
2024-05-09T11:31:27.539Z,5.68
2024-05-09T11:34:00.692Z,4.22
2024-05-09T11:39:27.944Z,5.13
2024-05-09T11:41:55.092Z,9.57
2024-05-09T11:44:24.958Z,5.82
2024-05-09T11:46:52.218Z,6.35
2024-05-09T11:49:25.331Z,6.20
2024-05-09T11:51:53.544Z,7.82
2024-05-09T11:54:23.378Z,4.63
2024-05-09T11:56:53.190Z,8.10
2024-05-09T11:59:22.956Z,4.68
2024-05-09T12:01:50.346Z,6.05
2024-05-09T12:04:20.394Z,4.60
2024-05-09T12:06:47.720Z,4.45
2024-05-09T12:09:17.547Z,4.45
2024-05-09T12:11:44.799Z,8.00
2024-05-09T12:14:17.223Z,6.65
2024-05-09T12:16:44.545Z,5.15
2024-05-09T12:19:14.448Z,5.55
2024-05-09T12:21:41.749Z,3.88
2024-05-09T12:24:13.082Z,6.20
2024-05-09T12:26:41.724Z,5.53
2024-05-09T12:29:11.531Z,13.48
2024-05-09T12:31:41.466Z,13.60
2024-05-09T12:34:11.364Z,18.83
2024-05-09T12:36:38.634Z,19.80
2024-05-09T12:39:09.481Z,19.63
2024-05-09T12:41:36.832Z,25.70
2024-05-09T12:44:06.621Z,17.40
2024-05-09T12:46:33.869Z,17.67
2024-05-09T12:49:06.562Z,21.52
2024-05-09T12:51:33.942Z,17.25
2024-05-09T12:54:03.758Z,16.90
2024-05-09T12:56:30.939Z,15.35
2024-05-09T12:59:00.765Z,19.23
2024-05-09T13:01:28.032Z,13.82
2024-05-09T13:03:58.098Z,16.77
2024-05-09T13:06:28.292Z,17.05
2024-05-09T13:08:58.184Z,14.50
2024-05-09T13:11:25.396Z,11.60
2024-05-09T13:13:55.274Z,12.13
2024-05-09T13:16:22.628Z,12.75
2024-05-09T13:18:52.703Z,12.20
2024-05-09T13:21:19.995Z,11.93
2024-05-09T13:23:52.513Z,14.80
2024-05-09T13:26:19.793Z,11.85
2024-05-09T13:28:49.603Z,13.27
2024-05-09T13:31:16.753Z,11.70
2024-05-09T13:33:46.722Z,7.20
2024-05-09T13:36:14.110Z,8.93
2024-05-09T13:38:43.898Z,9.00
2024-05-09T13:41:13.790Z,9.98
2024-05-09T13:43:43.650Z,9.07
2024-05-09T13:46:11.054Z,8.80
2024-05-09T13:48:41.246Z,10.15
2024-05-09T13:51:08.530Z,8.10
2024-05-09T13:53:38.449Z,8.85
2024-05-09T13:56:06.115Z,6.85
2024-05-09T13:58:38.639Z,7.72
2024-05-09T14:01:05.947Z,13.88
2024-05-09T14:03:35.967Z,4.68
2024-05-09T14:06:03.550Z,7.47
2024-05-09T14:08:33.372Z,8.30
2024-05-09T14:11:00.825Z,5.32
2024-05-09T14:13:30.784Z,5.43
2024-05-09T14:16:00.913Z,4.95
2024-05-09T14:18:31.256Z,5.95
2024-05-09T14:20:58.541Z,5.15
2024-05-09T14:23:28.425Z,5.88
2024-05-09T14:25:55.814Z,7.05
2024-05-09T14:28:26.977Z,6.18
2024-05-09T14:30:56.563Z,3.35
2024-05-09T14:33:30.745Z,2.90
2024-05-09T14:35:58.425Z,4.60
2024-05-09T14:38:30.412Z,3.53
2024-05-09T14:40:57.788Z,3.90
2024-05-09T14:43:27.836Z,4.65
2024-05-09T14:45:56.050Z,11.73
2024-05-09T14:48:28.794Z,17.33
2024-05-09T14:50:56.125Z,14.82
2024-05-09T14:53:27.108Z,17.33
2024-05-09T14:55:54.585Z,11.10
2024-05-09T14:58:24.722Z,8.20
2024-05-09T15:00:52.354Z,12.57
2024-05-09T15:03:22.980Z,12.18
2024-05-09T15:05:53.337Z,9.52
2024-05-09T15:08:23.402Z,9.23
2024-05-09T15:10:51.029Z,8.65
2024-05-09T15:13:21.682Z,8.30
2024-05-09T15:15:49.305Z,8.77
2024-05-09T15:18:19.571Z,6.15
2024-05-09T15:20:47.205Z,7.43
2024-05-09T15:23:20.040Z,6.75
2024-05-09T15:25:47.354Z,6.90
2024-05-09T15:28:17.669Z,5.25
2024-05-09T15:30:46.601Z,4.85
2024-05-09T15:35:46.678Z,4.15
2024-05-09T15:40:47.442Z,4.85
2024-05-09T15:43:17.427Z,3.50
2024-05-09T15:45:44.834Z,3.28
2024-05-09T15:48:14.944Z,3.40
2024-05-09T15:50:43.035Z,3.88
2024-05-09T15:53:14.331Z,3.40
2024-05-09T15:55:44.257Z,4.40
2024-05-09T15:58:14.632Z,6.07
2024-05-09T16:00:44.807Z,3.97
2024-05-09T16:03:16.335Z,4.70
2024-05-09T16:05:44.503Z,4.97
2024-05-09T16:08:15.180Z,4.50
2024-05-09T16:10:47.082Z,3.58
2024-05-09T16:13:19.688Z,4.63
2024-05-09T16:15:47.473Z,4.15
2024-05-09T16:18:17.460Z,4.85
2024-05-09T16:20:49.581Z,5.68
2024-05-09T16:23:17.779Z,6.45
2024-05-09T16:25:51.474Z,6.03
2024-05-09T16:28:19.806Z,3.10
2024-05-09T16:30:50.488Z,6.40
2024-05-09T16:33:21.000Z,5.47
2024-05-09T16:35:51.003Z,4.80
2024-05-09T16:38:18.484Z,4.97
2024-05-09T16:40:51.162Z,5.40
2024-05-09T16:43:18.589Z,5.32
2024-05-09T16:45:48.630Z,3.35
2024-05-09T16:48:16.894Z,5.82
2024-05-09T16:50:46.802Z,4.32
2024-05-09T16:53:14.074Z,4.05
2024-05-09T16:55:44.037Z,5.07
2024-05-09T16:58:14.384Z,5.22
2024-05-09T17:00:44.952Z,6.15
2024-05-09T17:03:14.958Z,2.75
2024-05-09T17:05:47.217Z,4.43
2024-05-09T17:08:16.389Z,12.38
2024-05-09T17:10:48.520Z,5.75
2024-05-09T17:13:22.624Z,7.35
2024-05-09T17:15:52.734Z,7.95
2024-05-09T17:18:23.038Z,6.05
2024-05-09T17:20:53.162Z,6.78
2024-05-09T17:23:20.302Z,13.48
2024-05-09T17:25:50.114Z,9.63
2024-05-09T17:28:20.366Z,7.22
2024-05-09T17:30:50.365Z,5.18
2024-05-09T17:33:17.918Z,6.60
2024-05-09T17:35:50.598Z,6.47
2024-05-09T17:38:18.272Z,5.50
2024-05-09T17:40:48.211Z,5.10
2024-05-09T17:43:15.630Z,7.13
2024-05-09T17:45:48.294Z,7.28
2024-05-09T17:48:15.700Z,8.23
2024-05-09T17:50:46.267Z,5.95
2024-05-09T17:53:13.495Z,4.22
2024-05-09T17:55:43.420Z,5.38
2024-05-09T17:58:12.099Z,5.45
2024-05-09T18:00:42.817Z,4.53
2024-05-09T18:03:13.687Z,5.57
2024-05-09T18:05:45.214Z,4.25
2024-05-09T18:08:13.240Z,3.95
2024-05-09T18:10:44.384Z,3.78
2024-05-09T18:13:12.928Z,4.82
2024-05-09T18:15:45.393Z,6.40
2024-05-09T18:18:15.758Z,4.80
2024-05-09T18:20:46.560Z,5.03
2024-05-09T18:23:16.614Z,4.50
2024-05-09T18:25:48.636Z,5.30
2024-05-09T18:28:17.002Z,3.42
2024-05-09T18:30:47.645Z,6.23
2024-05-09T18:33:17.704Z,7.07
2024-05-09T18:35:48.804Z,6.07
2024-05-09T18:38:19.264Z,6.25
2024-05-09T18:40:48.977Z,6.95
2024-05-09T18:43:26.198Z,5.40
2024-05-09T18:45:58.680Z,8.90
2024-05-09T18:48:31.312Z,5.10
2024-05-09T18:50:58.583Z,6.40
2024-05-09T18:53:28.416Z,6.43
2024-05-09T18:55:55.739Z,6.68
2024-05-09T18:58:25.596Z,6.22
2024-05-09T19:00:55.006Z,5.68
2024-05-09T19:03:26.029Z,5.47
2024-05-09T19:05:56.269Z,6.45
2024-05-09T19:08:26.382Z,5.72
2024-05-09T19:10:54.114Z,7.05
2024-05-09T19:13:25.128Z,7.75
2024-05-09T19:15:52.529Z,5.45
2024-05-09T19:18:22.514Z,7.57
2024-05-09T19:20:49.813Z,4.50
2024-05-09T19:23:22.221Z,5.45
2024-05-09T19:25:49.377Z,5.05
2024-05-09T19:28:19.278Z,6.18
2024-05-09T19:30:46.523Z,9.13
2024-05-09T19:33:16.416Z,4.53
2024-05-09T19:35:43.973Z,5.03
2024-05-09T19:38:14.343Z,7.82
2024-05-09T19:40:44.152Z,4.72
2024-05-09T19:43:14.024Z,5.10
2024-05-09T19:45:41.308Z,4.55
2024-05-09T19:48:11.597Z,3.30
2024-05-09T19:50:43.216Z,3.80
2024-05-09T19:53:15.208Z,4.68
2024-05-09T19:55:45.153Z,3.47
2024-05-09T19:58:15.735Z,3.35
2024-05-09T20:00:44.232Z,2.10
2024-05-09T20:03:16.214Z,3.15
2024-05-09T20:05:45.526Z,2.70
2024-05-09T20:08:16.329Z,2.83
2024-05-09T20:10:46.369Z,3.83
2024-05-09T20:13:16.411Z,3.00
2024-05-09T20:15:43.654Z,2.33
2024-05-09T20:18:13.998Z,1.77
2024-05-09T20:20:43.648Z,2.88
2024-05-09T20:23:15.416Z,2.75
2024-05-09T20:25:48.211Z,3.38
2024-05-09T20:28:15.382Z,2.22
2024-05-09T20:30:45.240Z,3.30
2024-05-09T20:33:14.056Z,3.17
2024-05-09T20:35:44.040Z,2.90
2024-05-09T20:38:11.241Z,2.10
2024-05-09T20:40:41.106Z,2.15
2024-05-09T20:43:11.229Z,3.92
2024-05-09T20:45:41.367Z,2.55
2024-05-09T20:48:09.960Z,2.53
2024-05-09T20:50:42.166Z,3.30
2024-05-09T20:53:11.068Z,2.45
2024-05-09T20:55:41.519Z,3.15
2024-05-09T20:58:11.731Z,2.15
2024-05-09T21:00:44.675Z,2.30
2024-05-09T21:03:15.586Z,3.22
2024-05-09T21:05:47.332Z,2.28
2024-05-09T21:08:15.243Z,2.08
2024-05-09T21:10:45.287Z,2.22
2024-05-09T21:13:15.384Z,2.17
2024-05-09T21:15:45.321Z,2.20
2024-05-09T21:18:12.777Z,2.63
2024-05-09T21:20:42.597Z,2.35
2024-05-09T21:25:39.351Z,4.40
2024-05-09T21:30:42.484Z,3.20
2024-05-09T21:33:12.688Z,2.67
2024-05-09T21:35:44.626Z,3.00
2024-05-09T21:38:13.797Z,4.28
2024-05-09T21:40:44.640Z,3.45
2024-05-09T21:43:12.424Z,3.13
2024-05-09T21:45:45.232Z,2.28
2024-05-09T21:48:13.296Z,3.30
2024-05-09T21:50:43.312Z,2.35
2024-05-09T21:53:11.071Z,2.90
2024-05-09T21:55:41.017Z,3.28
2024-05-09T21:58:08.387Z,3.40
2024-05-09T22:00:40.270Z,2.35
2024-05-09T22:03:11.765Z,2.50
2024-05-09T22:05:44.655Z,2.60
2024-05-09T22:08:12.487Z,3.22
2024-05-09T22:10:42.481Z,2.60
2024-05-09T22:13:10.337Z,2.30
2024-05-09T22:15:41.257Z,2.92
2024-05-09T22:18:11.788Z,5.75
2024-05-09T22:20:45.355Z,4.97
2024-05-09T22:23:14.598Z,2.97
2024-05-09T22:25:44.628Z,2.20
2024-05-09T22:28:14.447Z,2.65
2024-05-09T22:30:46.238Z,2.20
2024-05-09T22:33:16.871Z,2.50
2024-05-09T22:35:47.525Z,2.17
2024-05-09T22:38:14.740Z,2.22
2024-05-09T22:40:48.419Z,2.65
2024-05-09T22:43:19.389Z,2.45
2024-05-09T22:45:50.099Z,2.40
2024-05-09T22:48:20.444Z,2.83
2024-05-09T22:50:50.394Z,2.60
2024-05-09T22:55:47.821Z,2.17
2024-05-09T23:00:44.891Z,2.65
2024-05-09T23:03:14.071Z,2.67
2024-05-09T23:05:47.350Z,2.33
2024-05-09T23:08:14.535Z,2.53
2024-05-09T23:10:44.497Z,2.17
2024-05-09T23:13:11.766Z,2.30
2024-05-09T23:15:41.733Z,1.75
2024-05-09T23:18:09.134Z,2.72
2024-05-09T23:20:40.195Z,2.67
2024-05-09T23:23:11.601Z,2.72
2024-05-09T23:25:42.734Z,2.55
2024-05-09T23:28:10.379Z,2.40
2024-05-09T23:30:41.483Z,2.60
2024-05-09T23:33:11.265Z,2.25
2024-05-09T23:35:41.339Z,2.28
2024-05-09T23:38:11.140Z,3.75
2024-05-09T23:43:10.863Z,2.35
2024-05-09T23:45:41.817Z,2.30
2024-05-09T23:48:10.153Z,2.35
2024-05-09T23:50:40.929Z,3.00
2024-05-09T23:53:14.303Z,2.50
2024-05-09T23:55:41.683Z,2.72
2024-05-09T23:58:11.790Z,3.03
